CDW weather

Essex County Airport
Caldwell, New Jersey, United States

Public forecast

Using degrees Fahrenheit for public forecast. Weather courtesy of forecast.io.

Current aviation weather report (METAR) for Essex County Airport

Retrieved 2019/11/14 20:53 UTC (10 minutes ago):

KCDW 142053Z 00000KT 10SM CLR 06/M06 A3032 RMK AO2 SLP276 T00611061 56013

Closest aviation forecast (TAF) to Essex County Airport

Closest forecast is Teterboro Airport, 10.1 nm (18.8 km) E. Retrieved 2019/11/14 18:22 UTC (3 hours ago):

TAF KTEB 141720Z 1418/1524 19005KT P6SM SCT040 BKN250 FM142000 20008KT P6SM SCT040 BKN250 FM150000 22005KT P6SM BKN250 FM150400 VRB03KT P6SM SCT250 FM151400 27008KT P6SM FEW250